Ellenburg Center, NY (12934)

7:21 PM EDT on September 01, 2015 (GMT -0400)
Ellenburg Depot | | Change Station
CLOSE
Current Station
Personal Weather Station
Location: Ellenburg Depot, NY
Elevation: 1000 ft
Nearby Weather Stations

Elev 1000 ft 44.91 °N, 73.82 °W | Updated 27 seconds ago

Clear
Clear
71.3 °F
Feels Like 70 °F
N
0.0
Wind Variable Wind from WNW
Gusts 0.0 mph

Today
High -- | Low -- °F
--% Chance of Precip.
Yesterday
High -- | Low -- °F
Precip. -- in
6:17 AM 7:32 PM
Waning Gibbous, 85% visible
Pressure 29.98 in
Visibility 10.0 miles
Clouds Clear
Heat Index 70 °F
Dew Point 67 °F
Humidity 85%
Rainfall 0.00 in
Snow Depth Not available.
UV 0 out of 12
Pollen 8.10 out of 12
Air Quality Not available.
Flu Activity Not available.
METAR KPBG 012253Z AUTO 00000KT 10SM CLR 23/17 A2998 RMK AO2 SLP151 T02330172
Pressure 29.98 in
Visibility 10.0 miles
Clouds Clear
Heat Index 70 °F
Dew Point 67 °F
Humidity 85%
Rainfall 0.00 in
Snow Depth Not available.
UV 0 out of 12
Pollen 8.10 out of 12
Air Quality Not available.
Flu Activity Not available.
METAR KPBG 012253Z AUTO 00000KT 10SM CLR 23/17 A2998 RMK AO2 SLP151 T02330172

10-Day Weather Forecast

×

Almanac

Astronomy

Sep. 01, 2015 Rise Set
Actual Time
Civil Twilight
Nautical Twilight
Astronomical Twilight
Moon
Length of Visible Light
Length of Day
Tomorrow will be .
, % of the Moon is Illuminated

Today's Extremes

State Highs State Lows

Community

WunderPhotos

Upload Photos

1,851,640 photos uploaded!

WunderBlogs® & News

Nearby

Air Quality

  Air Quality AQ Index Pollutant
Not available.

Snow Depth

Station Depth Elevation

Earthquake Activity

City Distance Mag. Time & Date
Minimum magnitude displayed is 2.5.

Coastal Water Temperatures

Place Temperature

Stations

Nearby Weather Stations

Station Location Temp. Windchill Dew Point Humidity Wind Precip. Elev Updated Type